Time;durP1;ratioP1;P1;durP2;ratioP2;P2;SDS_P1;SDS_P2;PMS_P1;PMS_P2;Temp;Humidity;BMP_temperature;BMP_pressure;BME280_temperature;BME280_humidity;BME280_pressure;Samples;Min_cycle;Max_cycle;Signal;HPM_P1;HPM_P2
2021/08/18 00:00:50;;;;;;;17.13;7.75;;;;;;;14.54;nan;101109.56;6239320;23;20030;-84
2021/08/18 00:03:16;;;;;;;15.27;8.90;;;;;;;14.42;nan;101106.28;6239734;23;20086;-84
2021/08/18 00:05:42;;;;;;;15.73;9.35;;;;;;;14.45;nan;101111.16;6240158;23;20056;-85
2021/08/18 00:08:10;;;;;;;14.55;7.93;;;;;;;14.44;nan;101107.66;6238796;23;20004;-84
2021/08/18 00:10:36;;;;;;;13.55;7.07;;;;;;;14.37;nan;101111.66;6238651;23;20057;-85
2021/08/18 00:13:04;;;;;;;15.25;7.75;;;;;;;14.34;nan;101112.16;6239198;23;20000;-84
2021/08/18 00:15:30;;;;;;;18.05;7.95;;;;;;;14.34;nan;101125.66;6239015;23;20068;-85
2021/08/18 00:18:00;;;;;;;12.73;7.00;;;;;;;14.25;nan;101132.63;6239548;23;20011;-84
2021/08/18 00:20:27;;;;;;;14.68;7.63;;;;;;;14.18;nan;101120.22;6239251;23;20004;-85
2021/08/18 00:22:52;;;;;;;17.65;7.60;;;;;;;14.14;nan;101116.41;6238870;23;20012;-84
2021/08/18 00:25:18;;;;;;;19.08;8.45;;;;;;;14.11;nan;101124.22;6237705;23;20011;-84
2021/08/18 00:27:43;;;;;;;15.70;7.25;;;;;;;14.28;nan;101122.13;6237686;23;20039;-85
2021/08/18 00:30:09;;;;;;;15.65;7.65;;;;;;;14.19;nan;101123.72;6237946;23;20006;-84
2021/08/18 00:32:35;;;;;;;15.77;7.80;;;;;;;14.30;nan;101121.88;6239027;23;20000;-85
2021/08/18 00:35:01;;;;;;;13.35;7.03;;;;;;;14.20;nan;101119.94;6238138;23;20007;-84
2021/08/18 00:37:26;;;;;;;16.60;7.57;;;;;;;14.29;nan;101134.53;6238974;23;20043;-85
2021/08/18 00:39:52;;;;;;;17.20;8.63;;;;;;;14.30;nan;101122.66;6238053;23;20015;-85
2021/08/18 00:42:18;;;;;;;15.38;7.55;;;;;;;14.32;nan;101130.50;6238545;23;20000;-84
2021/08/18 00:44:44;;;;;;;20.48;9.25;;;;;;;14.44;nan;101125.72;6239295;23;20012;-85
2021/08/18 00:47:09;;;;;;;17.88;8.38;;;;;;;14.42;nan;101117.06;6239591;23;20012;-84
2021/08/18 00:49:35;;;;;;;17.73;8.15;;;;;;;14.38;nan;101127.56;6240426;23;19996;-85
2021/08/18 00:52:03;;;;;;;15.77;7.95;;;;;;;14.25;nan;101132.63;6239591;23;20015;-85
2021/08/18 00:54:28;;;;;;;19.35;9.68;;;;;;;14.23;nan;101132.09;6238868;23;20153;-85
2021/08/18 00:56:54;;;;;;;18.13;8.63;;;;;;;14.26;nan;101131.56;6239049;23;20452;-85
2021/08/18 00:59:21;;;;;;;18.38;8.55;;;;;;;14.18;nan;101132.84;6238466;23;20039;-84
2021/08/18 01:01:46;;;;;;;19.05;8.43;;;;;;;14.15;nan;101131.50;6238918;23;20008;-85
2021/08/18 01:04:13;;;;;;;16.45;9.40;;;;;;;14.07;nan;101126.63;6240941;23;20008;-85
2021/08/18 01:06:40;;;;;;;15.75;8.50;;;;;;;14.25;nan;101133.44;6238707;23;20811;-85
2021/08/18 01:09:11;;;;;;;15.30;8.85;;;;;;;14.19;nan;101127.22;6237865;23;20728;-85
2021/08/18 01:11:37;;;;;;;18.25;8.68;;;;;;;14.35;nan;101132.66;6240561;22;20078;-85
2021/08/18 01:14:03;;;;;;;16.20;9.07;;;;;;;14.17;nan;101126.66;6238498;23;20004;-85
2021/08/18 01:16:33;;;;;;;16.77;8.73;;;;;;;14.23;nan;101130.19;6238543;23;20015;-84
2021/08/18 01:18:59;;;;;;;15.18;8.70;;;;;;;14.28;nan;101132.09;6238345;23;20032;-85
2021/08/18 01:21:26;;;;;;;17.98;8.95;;;;;;;14.07;nan;101121.22;6238936;23;20394;-84
2021/08/18 01:23:51;;;;;;;23.08;9.73;;;;;;;14.14;nan;101126.38;6238695;23;20027;-85
2021/08/18 01:26:17;;;;;;;15.68;8.10;;;;;;;14.23;nan;101124.00;6238315;23;20406;-85
2021/08/18 01:28:42;;;;;;;14.40;8.07;;;;;;;14.23;nan;101137.47;6238851;23;20011;-85
2021/08/18 01:31:08;;;;;;;13.57;8.05;;;;;;;14.25;nan;101121.84;6238163;23;20432;-85
2021/08/18 01:33:33;;;;;;;17.42;9.00;;;;;;;14.30;nan;101124.56;6238640;23;20031;-85
2021/08/18 01:35:59;;;;;;;19.33;9.07;;;;;;;14.21;nan;101130.47;6240010;23;20035;-85
2021/08/18 01:38:24;;;;;;;15.00;8.88;;;;;;;14.27;nan;101125.91;6238854;23;20015;-85
2021/08/18 01:40:51;;;;;;;14.88;8.45;;;;;;;14.23;nan;101126.69;6237266;23;20046;-85
2021/08/18 01:43:19;;;;;;;17.88;9.05;;;;;;;14.08;nan;101133.63;6248360;22;20494;-85
2021/08/18 01:45:45;;;;;;;16.67;8.25;;;;;;;14.12;nan;101128.53;6244069;22;20012;-84
2021/08/18 01:48:16;;;;;;;16.67;8.27;;;;;;;14.08;nan;101138.22;6243860;22;20451;-84
2021/08/18 01:50:46;;;;;;;15.95;8.57;;;;;;;14.17;nan;101136.63;6243479;22;20000;-85
2021/08/18 01:53:18;;;;;;;15.65;8.38;;;;;;;14.14;nan;101135.25;6242429;22;20003;-85
2021/08/18 01:55:44;;;;;;;16.60;8.55;;;;;;;14.19;nan;101137.19;6243414;22;20069;-84
2021/08/18 01:58:12;;;;;;;15.27;9.82;;;;;;;14.13;nan;101132.84;6246901;22;20003;-85
2021/08/18 02:00:39;;;;;;;15.50;8.32;;;;;;;14.06;nan;101143.84;6246135;22;20007;-84
2021/08/18 02:03:05;;;;;;;12.23;8.52;;;;;;;13.97;nan;101129.25;6272489;22;20004;-85
2021/08/18 02:05:31;;;;;;;12.43;7.75;;;;;;;14.17;nan;101137.44;6272355;22;20573;-85
2021/08/18 02:07:56;;;;;;;17.05;8.38;;;;;;;14.16;nan;101124.22;6245541;22;20011;-84
2021/08/18 02:10:22;;;;;;;16.00;8.13;;;;;;;14.08;nan;101112.06;6272060;22;20003;-85
2021/08/18 02:12:49;;;;;;;13.52;7.93;;;;;;;14.22;nan;101109.72;6245669;22;20513;-85
2021/08/18 02:15:21;;;;;;;14.30;8.40;;;;;;;14.07;nan;101123.13;6245709;22;20070;-84
2021/08/18 02:17:48;;;;;;;14.88;7.60;;;;;;;14.10;nan;101115.31;6245642;22;20007;-85
2021/08/18 02:20:16;;;;;;;14.43;8.27;;;;;;;14.23;nan;101113.22;6244899;22;20570;-85
2021/08/18 02:22:42;;;;;;;13.27;7.35;;;;;;;14.16;nan;101113.44;6245161;22;20003;-84
2021/08/18 02:25:09;;;;;;;12.30;7.93;;;;;;;14.03;nan;101112.06;6243744;22;20107;-85
2021/08/18 02:27:34;;;;;;;15.95;9.32;;;;;;;14.00;nan;101114.44;6244581;22;20073;-85
2021/08/18 02:30:01;;;;;;;14.00;7.75;;;;;;;14.18;nan;101111.28;6271665;22;20719;-84
2021/08/18 02:32:26;;;;;;;16.30;8.20;;;;;;;14.12;nan;101118.56;6245332;22;20031;-84
2021/08/18 02:34:52;;;;;;;11.88;6.53;;;;;;;14.26;nan;101116.19;6245120;22;20003;-85
2021/08/18 02:37:18;;;;;;;16.05;7.45;;;;;;;14.13;nan;101117.47;6245214;22;20046;-85
2021/08/18 02:39:43;;;;;;;12.93;7.20;;;;;;;14.17;nan;101109.66;6244244;22;20000;-85
2021/08/18 02:42:09;;;;;;;14.38;8.13;;;;;;;14.03;nan;101122.03;6243704;22;20086;-85
2021/08/18 02:44:35;;;;;;;12.52;7.75;;;;;;;14.09;nan;101112.88;6244756;22;20034;-85
2021/08/18 02:47:01;;;;;;;15.45;7.32;;;;;;;14.03;nan;101114.75;6244674;22;20098;-85
2021/08/18 02:49:26;;;;;;;12.27;7.88;;;;;;;13.84;nan;101116.25;6245288;22;20031;-85
2021/08/18 02:51:52;;;;;;;12.65;7.47;;;;;;;13.83;nan;101118.16;6271251;22;20010;-85
2021/08/18 02:54:17;;;;;;;14.65;7.75;;;;;;;13.82;nan;101121.06;6244000;22;20050;-85
2021/08/18 02:56:43;;;;;;;12.65;7.40;;;;;;;13.70;nan;101123.97;6244981;22;20435;-85
2021/08/18 02:59:08;;;;;;;14.15;7.40;;;;;;;13.72;nan;101116.44;6243600;22;20721;-85
2021/08/18 03:01:34;;;;;;;16.20;7.35;;;;;;;13.72;nan;101115.63;6244664;22;20007;-85
2021/08/18 03:03:59;;;;;;;14.93;8.13;;;;;;;13.54;nan;101114.97;6244634;22;20564;-85
2021/08/18 03:06:25;;;;;;;13.88;7.97;;;;;;;13.65;nan;101110.50;6244551;22;20049;-85
2021/08/18 03:08:51;;;;;;;13.27;8.25;;;;;;;13.65;nan;101107.81;6244782;22;20003;-85
2021/08/18 03:11:16;;;;;;;17.88;7.78;;;;;;;13.61;nan;101101.28;6244719;22;20090;-85
2021/08/18 03:13:42;;;;;;;15.30;8.10;;;;;;;13.63;nan;101109.09;6244419;22;20003;-84
2021/08/18 03:16:07;;;;;;;17.77;8.43;;;;;;;13.48;nan;101107.16;6272380;22;20011;-84
2021/08/18 03:18:33;;;;;;;13.57;8.52;;;;;;;13.41;nan;101120.00;6244855;22;19999;-84
2021/08/18 03:20:59;;;;;;;16.50;8.15;;;;;;;13.49;nan;101111.47;6244162;22;20029;-86
2021/08/18 03:23:25;;;;;;;12.90;7.82;;;;;;;13.51;nan;101112.81;6245165;22;20058;-84
2021/08/18 03:25:51;;;;;;;12.95;7.07;;;;;;;13.55;nan;101118.50;6245065;22;20022;-85
2021/08/18 03:28:17;;;;;;;12.07;7.30;;;;;;;13.62;nan;101113.69;6244470;22;20018;-86
2021/08/18 03:30:43;;;;;;;13.10;7.78;;;;;;;13.57;nan;101121.72;6244633;22;20031;-85
2021/08/18 03:33:09;;;;;;;13.50;7.68;;;;;;;13.52;nan;101114.44;6244121;22;20007;-85
2021/08/18 03:35:34;;;;;;;16.63;7.50;;;;;;;13.66;nan;101122.06;6244613;22;20014;-84
2021/08/18 03:38:00;;;;;;;12.75;7.57;;;;;;;13.46;nan;101126.22;6243839;22;20034;-85
2021/08/18 03:40:25;;;;;;;12.50;7.47;;;;;;;13.55;nan;101129.25;6270654;22;20101;-85
2021/08/18 03:42:51;;;;;;;16.42;7.38;;;;;;;13.47;nan;101118.97;6244186;22;20086;-84
2021/08/18 03:45:17;;;;;;;13.63;6.88;;;;;;;13.29;nan;101125.56;6244548;22;19999;-84
2021/08/18 03:47:42;;;;;;;18.13;7.95;;;;;;;13.35;nan;101126.41;6244538;22;20003;-85
2021/08/18 03:50:09;;;;;;;14.27;7.93;;;;;;;13.47;nan;101127.88;6244198;22;20387;-85
2021/08/18 03:52:39;;;;;;;11.85;7.32;;;;;;;13.36;nan;101131.53;6271415;22;20057;-86
2021/08/18 03:55:05;;;;;;;12.95;6.47;;;;;;;13.37;nan;101135.84;6244101;22;20003;-86
2021/08/18 03:57:30;;;;;;;11.10;7.45;;;;;;;13.47;nan;101143.22;6245202;22;20011;-85
2021/08/18 03:59:56;;;;;;;11.82;7.55;;;;;;;13.40;nan;101139.91;6244142;22;20432;-85
2021/08/18 04:02:21;;;;;;;13.23;7.30;;;;;;;13.48;nan;101139.44;6245041;22;20003;-84
2021/08/18 04:04:47;;;;;;;11.93;7.80;;;;;;;13.47;nan;101133.25;6262861;22;20071;-85
2021/08/18 04:07:12;;;;;;;12.77;6.50;;;;;;;13.54;nan;101139.22;6250098;22;20436;-86
2021/08/18 04:09:38;;;;;;;13.70;7.00;;;;;;;13.67;nan;101142.53;6243549;22;20003;-85
2021/08/18 04:12:04;;;;;;;12.07;7.05;;;;;;;13.70;nan;101144.72;6242388;22;20454;-85
2021/08/18 04:14:29;;;;;;;10.60;7.63;;;;;;;13.67;nan;101135.28;6244467;22;19992;-84
2021/08/18 04:16:54;;;;;;;12.32;7.25;;;;;;;13.77;nan;101137.22;6244035;22;20018;-86
2021/08/18 04:19:20;;;;;;;14.68;7.00;;;;;;;13.90;nan;101134.06;6270767;22;20420;-85
2021/08/18 04:21:46;;;;;;;15.55;7.68;;;;;;;13.82;nan;101139.94;6244815;22;20016;-84
2021/08/18 04:24:13;;;;;;;15.88;7.32;;;;;;;13.89;nan;101140.53;6244670;22;19995;-84
2021/08/18 04:26:38;;;;;;;17.33;8.02;;;;;;;13.88;nan;101153.19;6244945;22;20086;-84
2021/08/18 04:29:04;;;;;;;13.00;6.85;;;;;;;13.84;nan;101156.66;6244853;22;20027;-85
2021/08/18 04:31:29;;;;;;;13.30;6.93;;;;;;;14.00;nan;101152.16;6244412;22;20008;-85
2021/08/18 04:33:55;;;;;;;12.57;7.22;;;;;;;13.90;nan;101147.53;6272255;22;20000;-85
2021/08/18 04:36:20;;;;;;;13.63;7.20;;;;;;;13.96;nan;101151.88;6244789;22;20455;-85
2021/08/18 04:38:46;;;;;;;14.85;6.80;;;;;;;14.03;nan;101152.47;6244951;22;20080;-86
2021/08/18 04:41:11;;;;;;;14.13;7.38;;;;;;;14.03;nan;101151.66;6244555;22;20004;-85
2021/08/18 04:43:37;;;;;;;11.98;7.15;;;;;;;14.02;nan;101150.84;6244699;22;20018;-85
2021/08/18 04:46:02;;;;;;;11.93;6.72;;;;;;;14.00;nan;101155.66;6271720;22;20258;-85
2021/08/18 04:48:28;;;;;;;14.25;7.45;;;;;;;14.09;nan;101161.38;6244998;22;20010;-85
2021/08/18 04:50:53;;;;;;;14.70;7.13;;;;;;;14.12;nan;101152.78;6243736;22;19996;-84
2021/08/18 04:53:19;;;;;;;17.65;8.02;;;;;;;14.15;nan;101150.34;6272070;22;20027;-86
2021/08/18 04:55:44;;;;;;;14.50;7.85;;;;;;;14.26;nan;101148.53;6245589;22;20054;-85
2021/08/18 04:58:12;;;;;;;11.23;7.40;;;;;;;14.26;nan;101151.22;6272110;22;20584;-86
2021/08/18 05:00:37;;;;;;;13.88;7.45;;;;;;;14.11;nan;101160.03;6245106;22;20004;-85
2021/08/18 05:03:03;;;;;;;14.60;7.47;;;;;;;14.25;nan;101164.97;6244911;22;20083;-85
2021/08/18 05:05:28;;;;;;;12.70;7.15;;;;;;;14.01;nan;101165.41;6245050;22;20004;-87
2021/08/18 05:07:56;;;;;;;13.45;7.05;;;;;;;14.14;nan;101170.28;6245795;22;19999;-86
2021/08/18 05:10:22;;;;;;;11.75;7.10;;;;;;;14.09;nan;101164.06;6245019;22;20381;-86
2021/08/18 05:12:47;;;;;;;12.43;7.28;;;;;;;14.15;nan;101163.84;6247099;22;20078;-85
2021/08/18 05:15:13;;;;;;;19.10;6.80;;;;;;;14.19;nan;101173.03;6245727;22;20004;-85
2021/08/18 05:17:38;;;;;;;12.85;7.03;;;;;;;14.28;nan;101169.84;6246436;22;20011;-86
2021/08/18 05:20:06;;;;;;;11.68;7.15;;;;;;;14.27;nan;101173.59;6244990;22;20010;-85
2021/08/18 05:22:31;;;;;;;21.08;7.90;;;;;;;14.30;nan;101173.88;6245202;22;20022;-85
2021/08/18 05:24:57;;;;;;;11.95;6.95;;;;;;;14.29;nan;101174.16;6245526;22;19999;-85
2021/08/18 05:27:22;;;;;;;12.93;7.28;;;;;;;14.40;nan;101173.13;6244966;22;20003;-85
2021/08/18 05:29:48;;;;;;;13.30;6.88;;;;;;;14.30;nan;101187.38;6243341;22;20466;-85
2021/08/18 05:32:13;;;;;;;14.25;6.43;;;;;;;14.39;nan;101182.31;6248444;22;20031;-85
2021/08/18 05:34:39;;;;;;;16.88;6.85;;;;;;;14.49;nan;101185.06;6247819;22;20497;-86
2021/08/18 05:37:04;;;;;;;12.55;6.55;;;;;;;14.56;nan;101182.94;6275047;22;20445;-85
2021/08/18 05:39:30;;;;;;;13.70;6.90;;;;;;;14.69;nan;101181.63;6247586;22;20004;-86
2021/08/18 05:41:55;;;;;;;12.77;5.28;;;;;;;14.75;nan;101186.78;6247501;22;20012;-86
2021/08/18 05:44:21;;;;;;;15.07;7.10;;;;;;;14.82;nan;101186.53;6247529;22;20360;-85
2021/08/18 05:46:49;;;;;;;17.10;7.45;;;;;;;14.80;nan;101183.28;6245518;22;20007;-83
2021/08/18 05:49:31;;;;;;;;;;;;;;;;;;;;;
2021/08/18 05:52:04;;;;;;;12.00;6.47;;;;;;;14.88;nan;101179.25;6272297;22;20086;-84
2021/08/18 05:54:31;;;;;;;13.02;6.57;;;;;;;14.73;nan;101178.16;6219497;22;20041;-84
2021/08/18 05:56:58;;;;;;;8.80;5.72;;;;;;;14.88;nan;101181.94;6239471;22;20402;-48
2021/08/18 05:59:23;;;;;;;13.10;5.70;;;;;;;14.97;nan;101183.06;6267233;22;20082;-47
2021/08/18 06:01:49;;;;;;;12.27;5.78;;;;;;;15.08;nan;101176.59;6267134;22;20006;-47
2021/08/18 06:04:14;;;;;;;16.38;5.90;;;;;;;15.10;nan;101186.06;6268325;22;19996;-47
2021/08/18 06:06:40;;;;;;;9.90;5.85;;;;;;;15.21;nan;101189.56;6267453;22;20003;-49
2021/08/18 06:09:06;;;;;;;13.95;5.85;;;;;;;15.25;nan;101181.75;6266181;22;20079;-47
2021/08/18 06:11:31;;;;;;;8.23;5.00;;;;;;;15.26;nan;101186.06;6267745;22;20351;-48
2021/08/18 06:13:57;;;;;;;10.45;5.65;;;;;;;15.21;nan;101184.19;6266290;22;20003;-48
2021/08/18 06:16:22;;;;;;;11.38;5.50;;;;;;;15.26;nan;101189.59;6266299;22;20034;-47
2021/08/18 06:18:48;;;;;;;8.88;5.20;;;;;;;15.19;nan;101188.22;6265719;22;20003;-48
2021/08/18 06:21:14;;;;;;;11.80;5.03;;;;;;;15.35;nan;101179.06;6240606;22;20399;-47
2021/08/18 06:23:40;;;;;;;10.40;5.80;;;;;;;15.39;nan;101191.75;6267540;22;20000;-46
2021/08/18 06:26:06;;;;;;;6.88;4.60;;;;;;;15.24;nan;101186.34;6268093;22;20004;-48
2021/08/18 06:28:32;;;;;;;9.32;5.03;;;;;;;15.41;nan;101186.88;6267989;22;20332;-47
2021/08/18 06:30:58;;;;;;;9.77;5.30;;;;;;;15.51;nan;101193.38;6266996;22;20518;-47
2021/08/18 06:33:23;;;;;;;8.18;5.07;;;;;;;15.46;nan;101194.19;6268475;22;20363;-48
2021/08/18 06:35:48;;;;;;;10.07;5.43;;;;;;;15.68;nan;101193.97;6240813;22;20011;-47
2021/08/18 06:38:14;;;;;;;10.18;4.50;;;;;;;15.71;nan;101185.31;6268010;22;20445;-48
2021/08/18 06:40:40;;;;;;;10.27;4.97;;;;;;;15.77;nan;101192.31;6266863;22;20050;-47
2021/08/18 06:43:05;;;;;;;7.72;4.90;;;;;;;15.94;nan;101187.44;6267270;22;20034;-47
2021/08/18 06:45:31;;;;;;;8.52;4.93;;;;;;;16.15;nan;101193.59;6268680;22;20462;-46
2021/08/18 06:47:57;;;;;;;9.57;4.70;;;;;;;16.00;nan;101197.16;6267372;22;19999;-47
2021/08/18 06:50:23;;;;;;;10.77;5.13;;;;;;;16.08;nan;101197.69;6267131;22;20010;-47
2021/08/18 06:52:48;;;;;;;10.70;5.15;;;;;;;16.07;nan;101196.88;6267414;22;20003;-48
2021/08/18 06:55:15;;;;;;;9.18;5.22;;;;;;;16.32;nan;101198.69;6240339;22;20012;-48
2021/08/18 06:57:41;;;;;;;10.18;5.78;;;;;;;15.95;nan;101193.66;6266375;22;20037;-47
2021/08/18 07:00:08;;;;;;;15.23;5.15;;;;;;;16.39;nan;101190.31;6267255;22;20339;-46
2021/08/18 07:02:40;;;;;;;10.00;5.35;;;;;;;16.43;nan;101181.34;6267941;22;20366;-47
2021/08/18 07:05:06;;;;;;;7.35;4.93;;;;;;;16.61;nan;101185.34;6239256;22;20427;-46
2021/08/18 07:07:31;;;;;;;10.10;5.60;;;;;;;16.32;nan;101183.28;6267834;22;20010;-48
2021/08/18 07:09:57;;;;;;;11.68;5.10;;;;;;;16.53;nan;101178.63;6264783;22;20553;-47
2021/08/18 07:12:22;;;;;;;12.10;5.68;;;;;;;16.38;nan;101177.88;6267767;22;20004;-49
2021/08/18 07:14:48;;;;;;;8.70;5.18;;;;;;;16.72;nan;101188.84;6266812;22;19999;-50
2021/08/18 07:17:14;;;;;;;9.38;4.72;;;;;;;16.96;nan;101178.16;6267134;22;20054;-47
2021/08/18 07:19:39;;;;;;;8.02;5.38;;;;;;;17.00;nan;101177.31;6266891;22;20015;-48
2021/08/18 07:22:05;;;;;;;8.75;4.97;;;;;;;17.17;nan;101180.44;6265871;22;20003;-48
2021/08/18 07:24:31;;;;;;;8.23;4.90;;;;;;;16.99;nan;101181.09;6267787;22;19996;-50
2021/08/18 07:26:58;;;;;;;6.70;4.57;;;;;;;17.17;nan;101182.34;6266837;22;20040;-47
2021/08/18 07:29:24;;;;;;;8.45;5.55;;;;;;;16.95;nan;101174.63;6267491;22;20439;-47
2021/08/18 07:31:49;;;;;;;14.55;4.95;;;;;;;17.00;nan;101171.91;6266712;22;20010;-48
2021/08/18 07:34:15;;;;;;;8.82;4.70;;;;;;;17.13;nan;101173.97;6267171;22;20023;-48
2021/08/18 07:36:40;;;;;;;8.00;5.43;;;;;;;17.05;nan;101179.16;6267294;22;20336;-47
2021/08/18 07:39:06;;;;;;;9.80;4.20;;;;;;;17.75;nan;101167.00;6267753;22;20003;-47
2021/08/18 07:41:31;;;;;;;10.02;4.60;;;;;;;17.64;nan;101170.88;6239843;22;20004;-47
2021/08/18 07:43:56;;;;;;;6.47;4.15;;;;;;;17.68;nan;101177.38;6266978;22;19999;-49
2021/08/18 07:46:22;;;;;;;7.75;4.45;;;;;;;17.58;nan;101188.25;6267116;22;19999;-48
2021/08/18 07:48:47;;;;;;;7.15;4.80;;;;;;;17.31;nan;101182.53;6263846;22;19999;-48
2021/08/18 07:51:13;;;;;;;7.20;4.53;;;;;;;17.36;nan;101171.66;6237490;22;20035;-48
2021/08/18 07:53:41;;;;;;;7.10;4.07;;;;;;;17.69;nan;101181.69;6265862;22;20015;-48
2021/08/18 07:56:07;;;;;;;5.47;3.88;;;;;;;17.48;nan;101189.16;6267082;22;20038;-48
2021/08/18 07:58:33;;;;;;;10.02;4.25;;;;;;;17.32;nan;101181.44;6264539;22;20003;-49
2021/08/18 08:00:58;;;;;;;9.68;4.32;;;;;;;17.40;nan;101178.09;6265918;22;20011;-47
2021/08/18 08:03:24;;;;;;;5.68;4.38;;;;;;;17.47;nan;101175.91;6264808;22;20053;-50
2021/08/18 08:05:50;;;;;;;5.03;3.53;;;;;;;17.95;nan;101163.25;6264568;22;20100;-47
2021/08/18 08:08:15;;;;;;;5.95;3.85;;;;;;;18.29;nan;101165.06;6267590;22;20395;-48
2021/08/18 08:10:41;;;;;;;4.90;3.45;;;;;;;18.65;nan;101162.75;6266500;22;20346;-49
2021/08/18 08:13:07;;;;;;;10.02;4.70;;;;;;;18.02;nan;101160.22;6266588;22;20075;-48
2021/08/18 08:15:33;;;;;;;5.03;3.90;;;;;;;18.53;nan;101167.78;6266700;22;20014;-47
2021/08/18 08:17:59;;;;;;;5.13;3.60;;;;;;;18.50;nan;101160.22;6266285;22;20103;-49
2021/08/18 08:20:27;;;;;;;9.00;4.15;;;;;;;18.80;nan;101167.16;6264422;22;20548;-46
2021/08/18 08:22:53;;;;;;;5.38;3.33;;;;;;;18.90;nan;101161.59;6266821;22;20053;-49
2021/08/18 08:25:19;;;;;;;9.18;4.13;;;;;;;18.20;nan;101164.91;6266109;22;20014;-48
2021/08/18 08:27:45;;;;;;;7.43;3.58;;;;;;;18.66;nan;101170.59;6265561;22;20016;-47
2021/08/18 08:30:11;;;;;;;7.32;3.63;;;;;;;18.25;nan;101180.31;6266013;22;20007;-47
2021/08/18 08:32:38;;;;;;;14.63;4.38;;;;;;;17.99;nan;101174.38;6265889;22;20316;-48
2021/08/18 08:35:05;;;;;;;6.85;3.65;;;;;;;17.90;nan;101182.31;6233407;22;20062;-50
2021/08/18 08:37:30;;;;;;;6.22;3.30;;;;;;;17.94;nan;101174.41;6263755;22;20277;-47
2021/08/18 08:39:55;;;;;;;10.32;4.22;;;;;;;18.05;nan;101171.31;6264572;22;20007;-47
2021/08/18 08:42:22;;;;;;;6.45;3.28;;;;;;;17.82;nan;101177.53;6267570;22;20427;-50
2021/08/18 08:44:51;;;;;;;7.05;3.42;;;;;;;17.52;nan;101183.97;6267494;22;20006;-47
2021/08/18 08:47:18;;;;;;;4.85;3.38;;;;;;;17.69;nan;101170.84;6267877;22;19999;-48
2021/08/18 08:49:44;;;;;;;7.30;3.67;;;;;;;17.58;nan;101172.00;6266167;22;20159;-47
2021/08/18 08:52:12;;;;;;;4.55;3.13;;;;;;;17.79;nan;101161.84;6267915;22;20034;-47
2021/08/18 08:54:39;;;;;;;7.32;4.05;;;;;;;17.97;nan;101168.44;6266839;22;20006;-48
2021/08/18 08:57:05;;;;;;;7.55;3.92;;;;;;;18.66;nan;101165.16;6267650;22;20148;-47
2021/08/18 08:59:31;;;;;;;6.03;3.60;;;;;;;18.59;nan;101172.03;6266933;22;20431;-49
2021/08/18 09:02:06;;;;;;;7.75;3.72;;;;;;;18.86;nan;101168.72;6267266;22;20071;-49
2021/08/18 09:04:37;;;;;;;5.40;3.30;;;;;;;18.57;nan;101156.03;6239501;22;20745;-49
2021/08/18 09:07:18;;;;;;;5.22;3.08;;;;;;;19.23;nan;101154.31;6267308;22;20083;-48
2021/08/18 09:09:58;;;;;;;8.23;3.58;;;;;;;19.94;nan;101155.03;6265566;22;20112;-48
2021/08/18 09:12:32;;;;;;;4.68;3.00;;;;;;;20.25;nan;101155.22;6267520;22;20030;-48
2021/08/18 09:15:16;;;;;;;5.38;3.10;;;;;;;19.82;nan;101160.94;6267573;22;20008;-48
2021/08/18 09:17:43;;;;;;;5.15;2.90;;;;;;;18.83;nan;101159.25;6267374;22;20066;-52
2021/08/18 09:20:13;;;;;;;5.55;2.97;;;;;;;19.60;nan;101165.13;6241167;22;20003;-47
2021/08/18 09:22:53;;;;;;;5.13;2.85;;;;;;;19.66;nan;101162.31;6267543;22;20163;-48
2021/08/18 09:25:29;;;;;;;4.88;2.85;;;;;;;19.70;nan;101168.78;6266522;22;19996;-47
2021/08/18 09:28:00;;;;;;;7.55;3.20;;;;;;;19.37;nan;101166.03;6267453;22;20019;-48
2021/08/18 09:30:27;;;;;;;5.55;3.38;;;;;;;19.46;nan;101166.97;6266201;22;20067;-47
2021/08/18 09:32:54;;;;;;;4.95;3.33;;;;;;;19.69;nan;101164.44;6267057;22;20237;-50
2021/08/18 09:35:21;;;;;;;4.28;2.65;;;;;;;20.22;nan;101167.53;6266748;22;20007;-48
2021/08/18 09:38:02;;;;;;;5.82;3.45;;;;;;;20.27;nan;101166.59;6239936;22;20050;-47
2021/08/18 09:40:32;;;;;;;5.47;3.10;;;;;;;19.73;nan;101170.88;6266275;22;20607;-47
2021/08/18 09:43:15;;;;;;;5.05;2.78;;;;;;;19.01;nan;101155.72;6268419;22;20008;-48
2021/08/18 09:45:46;;;;;;;6.22;3.10;;;;;;;19.13;nan;101162.63;6267206;22;20003;-48
2021/08/18 09:48:18;;;;;;;10.77;2.80;;;;;;;19.00;nan;101162.25;6240715;22;20428;-48
2021/08/18 09:51:04;;;;;;;14.90;3.55;;;;;;;19.18;nan;101155.19;6266046;22;20444;-47
2021/08/18 09:53:35;;;;;;;4.38;2.90;;;;;;;18.96;nan;101161.22;6265928;22;20003;-52
2021/08/18 09:56:11;;;;;;;5.55;3.10;;;;;;;18.74;nan;101155.59;6266353;22;20355;-49
2021/08/18 09:58:46;;;;;;;4.88;2.50;;;;;;;19.04;nan;101153.53;6267378;22;20088;-48
2021/08/18 10:01:14;;;;;;;7.68;3.05;;;;;;;19.10;nan;101147.72;6266680;22;20010;-48
2021/08/18 10:03:42;;;;;;;4.35;2.72;;;;;;;19.33;nan;101140.56;6266653;22;20057;-47
2021/08/18 10:06:09;;;;;;;5.13;2.50;;;;;;;19.17;nan;101141.91;6267245;22;20016;-50
2021/08/18 10:08:36;;;;;;;4.00;2.47;;;;;;;19.26;nan;101134.72;6267076;22;20152;-48
2021/08/18 10:11:03;;;;;;;5.07;2.83;;;;;;;18.84;nan;101131.00;6237654;22;20065;-46
2021/08/18 10:13:29;;;;;;;3.83;2.40;;;;;;;19.12;nan;101122.97;6266260;22;20023;-48
2021/08/18 10:15:55;;;;;;;5.22;2.33;;;;;;;19.59;nan;101122.75;6263201;22;20329;-47
2021/08/18 10:18:31;;;;;;;5.13;2.50;;;;;;;19.70;nan;101117.94;6239759;22;20023;-47
2021/08/18 10:21:03;;;;;;;5.55;2.40;;;;;;;20.15;nan;101116.25;6267717;22;20327;-47
2021/08/18 10:23:58;;;;;;;5.93;2.47;;;;;;;20.50;nan;101105.75;6266534;22;20088;-48
2021/08/18 10:26:36;;;;;;;5.63;2.40;;;;;;;20.30;nan;101098.00;6259964;22;20010;-47
2021/08/18 10:29:17;;;;;;;6.57;2.53;;;;;;;20.68;nan;101102.09;6268404;22;20428;-48
2021/08/18 10:31:45;;;;;;;8.00;2.53;;;;;;;20.65;nan;101099.97;6267667;22;20011;-47
2021/08/18 10:34:26;;;;;;;3.25;2.40;;;;;;;20.50;nan;101086.69;6268597;22;20007;-48
2021/08/18 10:36:52;;;;;;;3.42;2.20;;;;;;;20.87;nan;101090.22;6268024;22;20082;-48
2021/08/18 10:39:23;;;;;;;4.65;2.20;;;;;;;20.68;nan;101107.53;6266441;22;20031;-47
2021/08/18 10:42:05;;;;;;;2.55;2.20;;;;;;;20.67;nan;101097.75;6264136;22;20008;-47
2021/08/18 10:44:41;;;;;;;4.43;2.58;;;;;;;20.86;nan;101100.31;6265467;22;20000;-47
2021/08/18 10:47:17;;;;;;;11.05;2.60;;;;;;;21.16;nan;101117.00;6239431;22;20015;-49
2021/08/18 10:49:44;;;;;;;3.38;2.25;;;;;;;21.28;nan;101106.41;6265384;22;20004;-47
2021/08/18 10:52:11;;;;;;;4.10;2.13;;;;;;;20.96;nan;101104.69;6265987;22;20415;-49
2021/08/18 10:54:41;;;;;;;5.22;2.40;;;;;;;21.01;nan;101101.88;6262715;22;20000;-48
2021/08/18 10:57:38;;;;;;;4.63;2.50;;;;;;;21.28;nan;101101.75;6263116;22;20011;-51
2021/08/18 11:00:14;;;;;;;8.45;2.80;;;;;;;20.74;nan;101102.75;6263540;22;20092;-47
2021/08/18 11:02:47;;;;;;;3.97;2.45;;;;;;;21.28;nan;101096.31;6265427;22;20004;-47
2021/08/18 11:05:14;;;;;;;6.10;2.28;;;;;;;21.55;nan;101092.63;6266223;22;19996;-48
2021/08/18 11:08:02;;;;;;;4.55;2.47;;;;;;;21.48;nan;101096.88;6264006;22;20003;-48
2021/08/18 11:10:28;;;;;;;7.80;2.30;;;;;;;21.67;nan;101079.19;6238049;22;20056;-46
2021/08/18 11:12:59;;;;;;;4.10;2.20;;;;;;;21.62;nan;101086.69;6265049;22;20335;-47
2021/08/18 11:15:24;;;;;;;3.53;2.05;;;;;;;21.96;nan;101081.38;6266679;22;20007;-48
2021/08/18 11:17:54;;;;;;;6.57;2.13;;;;;;;22.16;nan;101082.75;6266528;22;20011;-48
2021/08/18 11:20:21;;;;;;;3.70;2.50;;;;;;;21.22;nan;101080.38;6265428;22;20432;-47
2021/08/18 11:22:54;;;;;;;3.72;2.20;;;;;;;21.06;nan;101072.56;6266809;22;20185;-47
2021/08/18 11:25:20;;;;;;;2.10;1.70;;;;;;;20.57;nan;101080.81;6263728;22;20136;-51
2021/08/18 11:27:53;;;;;;;3.95;2.38;;;;;;;20.64;nan;101086.66;6266523;22;20007;-49
2021/08/18 11:30:32;;;;;;;4.13;2.10;;;;;;;21.11;nan;101075.16;6265849;22;20008;-48
2021/08/18 11:33:21;;;;;;;5.93;2.30;;;;;;;21.20;nan;101082.59;6238684;22;19999;-48
2021/08/18 11:35:47;;;;;;;3.97;2.00;;;;;;;20.89;nan;101074.38;6263983;22;20035;-48
2021/08/18 11:38:12;;;;;;;5.05;2.30;;;;;;;20.62;nan;101077.97;6265049;22;20009;-47
2021/08/18 11:40:39;;;;;;;8.65;2.58;;;;;;;20.46;nan;101069.34;6265189;22;20004;-48